sensor_id;sensor_type;location;lat;lon;timestamp;temperature;humidity
8715;DHT22;4394;51.208;8.904;2023-09-30T00:01:23;15.00;99.90
8715;DHT22;4394;51.208;8.904;2023-09-30T00:04:12;15.00;99.90
8715;DHT22;4394;51.208;8.904;2023-09-30T00:07:00;14.80;99.90
8715;DHT22;4394;51.208;8.904;2023-09-30T00:09:48;14.70;99.90
8715;DHT22;4394;51.208;8.904;2023-09-30T00:12:37;14.50;99.90
8715;DHT22;4394;51.208;8.904;2023-09-30T00:15:27;14.50;99.90
8715;DHT22;4394;51.208;8.904;2023-09-30T00:18:15;14.40;99.90
8715;DHT22;4394;51.208;8.904;2023-09-30T00:21:03;14.40;99.90
8715;DHT22;4394;51.208;8.904;2023-09-30T00:23:52;14.30;99.90
8715;DHT22;4394;51.208;8.904;2023-09-30T00:26:40;14.80;99.90
8715;DHT22;4394;51.208;8.904;2023-09-30T00:29:28;14.60;99.90
8715;DHT22;4394;51.208;8.904;2023-09-30T00:32:18;14.50;99.90
8715;DHT22;4394;51.208;8.904;2023-09-30T00:35:07;14.50;99.90
8715;DHT22;4394;51.208;8.904;2023-09-30T00:37:57;14.40;99.90
8715;DHT22;4394;51.208;8.904;2023-09-30T00:40:49;14.40;99.90
8715;DHT22;4394;51.208;8.904;2023-09-30T00:43:37;14.40;99.90
8715;DHT22;4394;51.208;8.904;2023-09-30T00:46:28;14.30;99.90
8715;DHT22;4394;51.208;8.904;2023-09-30T00:49:18;14.30;99.90
8715;DHT22;4394;51.208;8.904;2023-09-30T00:52:06;14.30;99.90
8715;DHT22;4394;51.208;8.904;2023-09-30T00:54:54;14.20;99.90
8715;DHT22;4394;51.208;8.904;2023-09-30T00:57:42;14.20;99.90
8715;DHT22;4394;51.208;8.904;2023-09-30T01:00:31;14.20;99.90
8715;DHT22;4394;51.208;8.904;2023-09-30T01:03:20;14.20;99.90
8715;DHT22;4394;51.208;8.904;2023-09-30T01:06:10;14.10;99.90
8715;DHT22;4394;51.208;8.904;2023-09-30T01:08:58;14.10;99.90
8715;DHT22;4394;51.208;8.904;2023-09-30T01:11:46;14.10;99.90
8715;DHT22;4394;51.208;8.904;2023-09-30T01:14:35;14.10;99.90
8715;DHT22;4394;51.208;8.904;2023-09-30T01:17:25;14.00;99.90
8715;DHT22;4394;51.208;8.904;2023-09-30T01:20:15;14.00;99.90
8715;DHT22;4394;51.208;8.904;2023-09-30T01:23:08;14.00;99.90
8715;DHT22;4394;51.208;8.904;2023-09-30T01:26:01;14.00;99.90
8715;DHT22;4394;51.208;8.904;2023-09-30T01:28:50;14.20;99.90
8715;DHT22;4394;51.208;8.904;2023-09-30T01:31:38;14.10;99.90
8715;DHT22;4394;51.208;8.904;2023-09-30T01:34:26;14.00;99.90
8715;DHT22;4394;51.208;8.904;2023-09-30T01:37:14;14.00;99.90
8715;DHT22;4394;51.208;8.904;2023-09-30T01:40:04;14.00;99.90
8715;DHT22;4394;51.208;8.904;2023-09-30T01:42:56;14.00;99.90
8715;DHT22;4394;51.208;8.904;2023-09-30T01:45:44;14.00;99.90
8715;DHT22;4394;51.208;8.904;2023-09-30T01:48:32;14.00;99.90
8715;DHT22;4394;51.208;8.904;2023-09-30T01:51:20;14.00;99.90
8715;DHT22;4394;51.208;8.904;2023-09-30T01:54:08;14.00;99.90
8715;DHT22;4394;51.208;8.904;2023-09-30T01:56:59;13.90;99.90
8715;DHT22;4394;51.208;8.904;2023-09-30T01:59:47;13.90;99.90
8715;DHT22;4394;51.208;8.904;2023-09-30T02:02:35;13.90;99.90
8715;DHT22;4394;51.208;8.904;2023-09-30T02:05:23;13.80;99.90
8715;DHT22;4394;51.208;8.904;2023-09-30T02:08:11;13.80;99.90
8715;DHT22;4394;51.208;8.904;2023-09-30T02:11:00;13.80;99.90
8715;DHT22;4394;51.208;8.904;2023-09-30T02:13:49;13.80;99.90
8715;DHT22;4394;51.208;8.904;2023-09-30T02:16:38;13.80;99.90
8715;DHT22;4394;51.208;8.904;2023-09-30T02:19:26;13.80;99.90
8715;DHT22;4394;51.208;8.904;2023-09-30T02:22:14;13.80;99.90
8715;DHT22;4394;51.208;8.904;2023-09-30T02:25:03;13.70;99.90
8715;DHT22;4394;51.208;8.904;2023-09-30T02:27:54;13.70;99.90
8715;DHT22;4394;51.208;8.904;2023-09-30T02:30:45;13.70;99.90
8715;DHT22;4394;51.208;8.904;2023-09-30T02:33:33;13.60;99.90
8715;DHT22;4394;51.208;8.904;2023-09-30T02:36:22;14.00;99.90
8715;DHT22;4394;51.208;8.904;2023-09-30T02:39:10;13.80;99.90
8715;DHT22;4394;51.208;8.904;2023-09-30T02:41:58;13.70;99.90
8715;DHT22;4394;51.208;8.904;2023-09-30T02:44:46;13.60;99.90
8715;DHT22;4394;51.208;8.904;2023-09-30T02:47:35;13.60;99.90
8715;DHT22;4394;51.208;8.904;2023-09-30T02:50:24;13.60;99.90
8715;DHT22;4394;51.208;8.904;2023-09-30T02:53:13;13.50;99.90
8715;DHT22;4394;51.208;8.904;2023-09-30T02:56:01;13.40;99.90
8715;DHT22;4394;51.208;8.904;2023-09-30T02:58:51;13.50;99.90
8715;DHT22;4394;51.208;8.904;2023-09-30T03:01:39;13.40;99.90
8715;DHT22;4394;51.208;8.904;2023-09-30T03:04:29;13.40;99.90
8715;DHT22;4394;51.208;8.904;2023-09-30T03:07:20;13.40;99.90
8715;DHT22;4394;51.208;8.904;2023-09-30T03:10:10;13.40;99.90
8715;DHT22;4394;51.208;8.904;2023-09-30T03:12:59;13.20;99.90
8715;DHT22;4394;51.208;8.904;2023-09-30T03:15:51;13.10;99.90
8715;DHT22;4394;51.208;8.904;2023-09-30T03:18:39;13.10;99.90
8715;DHT22;4394;51.208;8.904;2023-09-30T03:21:28;13.00;99.90
8715;DHT22;4394;51.208;8.904;2023-09-30T03:24:16;13.00;99.90
8715;DHT22;4394;51.208;8.904;2023-09-30T03:27:04;13.20;99.90
8715;DHT22;4394;51.208;8.904;2023-09-30T03:29:52;13.30;99.90
8715;DHT22;4394;51.208;8.904;2023-09-30T03:32:41;13.30;99.90
8715;DHT22;4394;51.208;8.904;2023-09-30T03:35:29;13.20;99.90
8715;DHT22;4394;51.208;8.904;2023-09-30T03:38:20;13.10;99.90
8715;DHT22;4394;51.208;8.904;2023-09-30T03:41:09;12.90;99.90
8715;DHT22;4394;51.208;8.904;2023-09-30T03:43:59;12.90;99.90
8715;DHT22;4394;51.208;8.904;2023-09-30T03:46:48;13.10;99.90
8715;DHT22;4394;51.208;8.904;2023-09-30T03:49:36;13.00;99.90
8715;DHT22;4394;51.208;8.904;2023-09-30T03:52:25;12.90;99.90
8715;DHT22;4394;51.208;8.904;2023-09-30T03:55:16;12.90;99.90
8715;DHT22;4394;51.208;8.904;2023-09-30T03:58:08;12.90;99.90
8715;DHT22;4394;51.208;8.904;2023-09-30T04:00:56;12.90;99.90
8715;DHT22;4394;51.208;8.904;2023-09-30T04:03:44;13.00;99.90
8715;DHT22;4394;51.208;8.904;2023-09-30T04:06:32;13.00;99.90
8715;DHT22;4394;51.208;8.904;2023-09-30T04:09:20;13.20;99.90
8715;DHT22;4394;51.208;8.904;2023-09-30T04:12:09;13.20;99.90
8715;DHT22;4394;51.208;8.904;2023-09-30T04:14:58;13.20;99.90
8715;DHT22;4394;51.208;8.904;2023-09-30T04:17:46;13.10;99.90
8715;DHT22;4394;51.208;8.904;2023-09-30T04:20:34;12.80;99.90
8715;DHT22;4394;51.208;8.904;2023-09-30T04:23:22;12.70;99.90
8715;DHT22;4394;51.208;8.904;2023-09-30T04:26:10;12.60;99.90
8715;DHT22;4394;51.208;8.904;2023-09-30T04:28:59;12.70;99.90
8715;DHT22;4394;51.208;8.904;2023-09-30T04:31:48;12.70;99.90
8715;DHT22;4394;51.208;8.904;2023-09-30T04:34:36;12.70;99.90
8715;DHT22;4394;51.208;8.904;2023-09-30T04:37:24;12.70;99.90
8715;DHT22;4394;51.208;8.904;2023-09-30T04:40:12;12.80;99.90
8715;DHT22;4394;51.208;8.904;2023-09-30T04:43:03;12.70;99.90
8715;DHT22;4394;51.208;8.904;2023-09-30T04:45:54;12.70;99.90
8715;DHT22;4394;51.208;8.904;2023-09-30T04:48:43;12.70;99.90
8715;DHT22;4394;51.208;8.904;2023-09-30T04:51:35;13.10;99.90
8715;DHT22;4394;51.208;8.904;2023-09-30T04:54:24;12.80;99.90
8715;DHT22;4394;51.208;8.904;2023-09-30T04:57:12;12.60;99.90
8715;DHT22;4394;51.208;8.904;2023-09-30T05:00:00;12.50;99.90
8715;DHT22;4394;51.208;8.904;2023-09-30T05:02:58;12.40;99.90
8715;DHT22;4394;51.208;8.904;2023-09-30T05:05:47;12.30;99.90
8715;DHT22;4394;51.208;8.904;2023-09-30T05:08:34;12.20;99.90
8715;DHT22;4394;51.208;8.904;2023-09-30T05:11:23;12.00;99.90
8715;DHT22;4394;51.208;8.904;2023-09-30T05:14:11;12.00;99.90
8715;DHT22;4394;51.208;8.904;2023-09-30T05:16:59;12.00;99.90
8715;DHT22;4394;51.208;8.904;2023-09-30T05:19:49;12.00;99.90
8715;DHT22;4394;51.208;8.904;2023-09-30T05:22:37;12.10;99.90
8715;DHT22;4394;51.208;8.904;2023-09-30T05:25:25;12.00;99.90
8715;DHT22;4394;51.208;8.904;2023-09-30T05:28:14;11.90;99.90
8715;DHT22;4394;51.208;8.904;2023-09-30T05:31:02;11.90;99.90
8715;DHT22;4394;51.208;8.904;2023-09-30T05:33:51;11.90;99.90
8715;DHT22;4394;51.208;8.904;2023-09-30T05:36:40;11.80;99.90
8715;DHT22;4394;51.208;8.904;2023-09-30T05:39:29;11.80;99.90
8715;DHT22;4394;51.208;8.904;2023-09-30T05:42:18;11.80;99.90
8715;DHT22;4394;51.208;8.904;2023-09-30T05:45:07;11.80;99.90
8715;DHT22;4394;51.208;8.904;2023-09-30T05:47:56;11.80;99.90
8715;DHT22;4394;51.208;8.904;2023-09-30T05:50:49;11.80;99.90
8715;DHT22;4394;51.208;8.904;2023-09-30T05:53:38;11.80;99.90
8715;DHT22;4394;51.208;8.904;2023-09-30T05:56:28;11.80;99.90
8715;DHT22;4394;51.208;8.904;2023-09-30T05:59:16;11.80;99.90
8715;DHT22;4394;51.208;8.904;2023-09-30T06:02:04;11.90;99.90
8715;DHT22;4394;51.208;8.904;2023-09-30T06:04:52;11.90;99.90
8715;DHT22;4394;51.208;8.904;2023-09-30T06:07:41;12.00;99.90
8715;DHT22;4394;51.208;8.904;2023-09-30T06:10:33;12.00;99.90
8715;DHT22;4394;51.208;8.904;2023-09-30T06:13:22;12.00;99.90
8715;DHT22;4394;51.208;8.904;2023-09-30T06:16:11;12.00;99.90
8715;DHT22;4394;51.208;8.904;2023-09-30T06:18:59;12.00;99.90
8715;DHT22;4394;51.208;8.904;2023-09-30T06:21:47;12.10;99.90
8715;DHT22;4394;51.208;8.904;2023-09-30T06:24:37;12.10;99.90
8715;DHT22;4394;51.208;8.904;2023-09-30T06:27:27;12.00;99.90
8715;DHT22;4394;51.208;8.904;2023-09-30T06:30:15;12.60;99.90
8715;DHT22;4394;51.208;8.904;2023-09-30T06:33:04;12.40;99.90
8715;DHT22;4394;51.208;8.904;2023-09-30T06:35:53;12.30;99.90
8715;DHT22;4394;51.208;8.904;2023-09-30T06:38:42;12.20;99.90
8715;DHT22;4394;51.208;8.904;2023-09-30T06:41:30;12.20;99.90
8715;DHT22;4394;51.208;8.904;2023-09-30T06:44:19;12.20;99.90
8715;DHT22;4394;51.208;8.904;2023-09-30T06:47:11;12.30;99.90
8715;DHT22;4394;51.208;8.904;2023-09-30T06:49:59;12.40;99.90
8715;DHT22;4394;51.208;8.904;2023-09-30T06:52:47;12.50;99.90
8715;DHT22;4394;51.208;8.904;2023-09-30T06:55:38;12.50;99.90
8715;DHT22;4394;51.208;8.904;2023-09-30T06:58:26;12.50;99.90
8715;DHT22;4394;51.208;8.904;2023-09-30T07:01:16;12.50;99.90
8715;DHT22;4394;51.208;8.904;2023-09-30T07:04:05;12.60;99.90
8715;DHT22;4394;51.208;8.904;2023-09-30T07:06:53;12.60;99.90
8715;DHT22;4394;51.208;8.904;2023-09-30T07:09:43;12.80;99.90
8715;DHT22;4394;51.208;8.904;2023-09-30T07:12:31;12.90;99.90
8715;DHT22;4394;51.208;8.904;2023-09-30T07:15:23;12.90;99.90
8715;DHT22;4394;51.208;8.904;2023-09-30T07:18:12;12.90;99.90
8715;DHT22;4394;51.208;8.904;2023-09-30T07:21:00;12.90;99.90
8715;DHT22;4394;51.208;8.904;2023-09-30T07:23:48;13.00;99.90
8715;DHT22;4394;51.208;8.904;2023-09-30T07:26:36;13.10;99.90
8715;DHT22;4394;51.208;8.904;2023-09-30T07:29:24;13.10;99.90
8715;DHT22;4394;51.208;8.904;2023-09-30T07:32:12;13.20;99.90
8715;DHT22;4394;51.208;8.904;2023-09-30T07:35:03;13.30;99.90
8715;DHT22;4394;51.208;8.904;2023-09-30T07:37:51;13.40;99.90
8715;DHT22;4394;51.208;8.904;2023-09-30T07:40:40;13.50;99.90
8715;DHT22;4394;51.208;8.904;2023-09-30T07:43:28;13.90;99.90
8715;DHT22;4394;51.208;8.904;2023-09-30T07:46:17;13.90;99.90
8715;DHT22;4394;51.208;8.904;2023-09-30T07:49:08;13.80;99.90
8715;DHT22;4394;51.208;8.904;2023-09-30T07:51:57;13.90;99.90
8715;DHT22;4394;51.208;8.904;2023-09-30T07:54:45;14.00;99.90
8715;DHT22;4394;51.208;8.904;2023-09-30T07:57:33;13.90;99.90
8715;DHT22;4394;51.208;8.904;2023-09-30T08:00:21;14.00;99.90
8715;DHT22;4394;51.208;8.904;2023-09-30T08:03:10;14.10;99.90
8715;DHT22;4394;51.208;8.904;2023-09-30T08:05:58;14.20;99.90
8715;DHT22;4394;51.208;8.904;2023-09-30T08:08:47;14.30;99.90
8715;DHT22;4394;51.208;8.904;2023-09-30T08:11:36;14.30;99.90
8715;DHT22;4394;51.208;8.904;2023-09-30T08:14:24;14.40;99.90
8715;DHT22;4394;51.208;8.904;2023-09-30T08:17:12;14.40;99.90
8715;DHT22;4394;51.208;8.904;2023-09-30T08:20:02;14.50;99.90
8715;DHT22;4394;51.208;8.904;2023-09-30T08:22:51;14.60;99.90
8715;DHT22;4394;51.208;8.904;2023-09-30T08:25:40;14.70;99.90
8715;DHT22;4394;51.208;8.904;2023-09-30T08:28:28;14.70;99.90
8715;DHT22;4394;51.208;8.904;2023-09-30T08:31:16;14.70;99.90
8715;DHT22;4394;51.208;8.904;2023-09-30T08:34:04;14.80;99.90
8715;DHT22;4394;51.208;8.904;2023-09-30T08:36:52;15.00;99.90
8715;DHT22;4394;51.208;8.904;2023-09-30T08:39:40;14.90;99.90
8715;DHT22;4394;51.208;8.904;2023-09-30T08:42:32;15.00;99.90
8715;DHT22;4394;51.208;8.904;2023-09-30T08:45:22;15.10;99.90
8715;DHT22;4394;51.208;8.904;2023-09-30T08:48:10;15.10;99.90
8715;DHT22;4394;51.208;8.904;2023-09-30T08:50:59;15.20;99.90
8715;DHT22;4394;51.208;8.904;2023-09-30T08:53:48;15.30;99.90
8715;DHT22;4394;51.208;8.904;2023-09-30T08:56:39;15.40;99.90
8715;DHT22;4394;51.208;8.904;2023-09-30T08:59:31;15.50;99.90
8715;DHT22;4394;51.208;8.904;2023-09-30T09:02:19;15.60;99.90
8715;DHT22;4394;51.208;8.904;2023-09-30T09:05:08;15.60;99.90
8715;DHT22;4394;51.208;8.904;2023-09-30T09:07:58;15.60;99.90
8715;DHT22;4394;51.208;8.904;2023-09-30T09:10:54;15.70;99.90
8715;DHT22;4394;51.208;8.904;2023-09-30T09:13:47;15.80;99.90
8715;DHT22;4394;51.208;8.904;2023-09-30T09:16:50;15.90;99.90
8715;DHT22;4394;51.208;8.904;2023-09-30T09:19:39;15.90;99.90
8715;DHT22;4394;51.208;8.904;2023-09-30T09:22:38;16.00;99.90
8715;DHT22;4394;51.208;8.904;2023-09-30T09:25:26;16.20;99.90
8715;DHT22;4394;51.208;8.904;2023-09-30T09:28:15;16.30;99.90
8715;DHT22;4394;51.208;8.904;2023-09-30T09:31:19;16.30;99.90
8715;DHT22;4394;51.208;8.904;2023-09-30T09:34:14;16.40;99.90
8715;DHT22;4394;51.208;8.904;2023-09-30T09:37:13;16.50;99.90
8715;DHT22;4394;51.208;8.904;2023-09-30T09:40:02;16.40;99.90
8715;DHT22;4394;51.208;8.904;2023-09-30T09:42:51;16.40;99.90
8715;DHT22;4394;51.208;8.904;2023-09-30T09:45:41;16.40;99.90
8715;DHT22;4394;51.208;8.904;2023-09-30T09:48:30;16.40;99.90
8715;DHT22;4394;51.208;8.904;2023-09-30T09:51:20;16.50;99.90
8715;DHT22;4394;51.208;8.904;2023-09-30T09:54:09;16.50;99.90
8715;DHT22;4394;51.208;8.904;2023-09-30T09:56:59;16.60;99.90
8715;DHT22;4394;51.208;8.904;2023-09-30T09:59:48;16.90;99.90
8715;DHT22;4394;51.208;8.904;2023-09-30T10:02:39;17.00;99.90
8715;DHT22;4394;51.208;8.904;2023-09-30T10:05:27;17.20;99.90
8715;DHT22;4394;51.208;8.904;2023-09-30T10:08:20;17.30;99.90
8715;DHT22;4394;51.208;8.904;2023-09-30T10:11:16;17.50;99.90
8715;DHT22;4394;51.208;8.904;2023-09-30T10:14:04;17.40;99.90
8715;DHT22;4394;51.208;8.904;2023-09-30T10:16:58;17.40;99.90
8715;DHT22;4394;51.208;8.904;2023-09-30T10:20:04;17.40;99.90
8715;DHT22;4394;51.208;8.904;2023-09-30T10:23:18;17.50;99.90
8715;DHT22;4394;51.208;8.904;2023-09-30T10:26:14;17.60;99.90
8715;DHT22;4394;51.208;8.904;2023-09-30T10:29:09;17.70;99.90
8715;DHT22;4394;51.208;8.904;2023-09-30T10:31:57;17.90;99.90
8715;DHT22;4394;51.208;8.904;2023-09-30T10:34:47;18.10;99.90
8715;DHT22;4394;51.208;8.904;2023-09-30T10:37:36;18.20;99.90
8715;DHT22;4394;51.208;8.904;2023-09-30T10:40:28;18.30;99.90
8715;DHT22;4394;51.208;8.904;2023-09-30T10:43:29;18.30;99.90
8715;DHT22;4394;51.208;8.904;2023-09-30T10:46:31;18.90;99.90
8715;DHT22;4394;51.208;8.904;2023-09-30T10:49:31;18.70;99.90
8715;DHT22;4394;51.208;8.904;2023-09-30T10:52:21;18.80;99.90
8715;DHT22;4394;51.208;8.904;2023-09-30T10:55:10;18.80;99.90
8715;DHT22;4394;51.208;8.904;2023-09-30T10:58:00;18.80;99.90
8715;DHT22;4394;51.208;8.904;2023-09-30T11:00:52;18.90;99.90
8715;DHT22;4394;51.208;8.904;2023-09-30T11:03:42;19.00;99.90
8715;DHT22;4394;51.208;8.904;2023-09-30T11:06:31;19.00;99.90
8715;DHT22;4394;51.208;8.904;2023-09-30T11:09:21;19.10;99.90
8715;DHT22;4394;51.208;8.904;2023-09-30T11:12:13;19.30;99.90
8715;DHT22;4394;51.208;8.904;2023-09-30T11:15:04;19.40;99.90
8715;DHT22;4394;51.208;8.904;2023-09-30T11:18:12;19.50;99.90
8715;DHT22;4394;51.208;8.904;2023-09-30T11:21:08;19.40;99.90
8715;DHT22;4394;51.208;8.904;2023-09-30T11:23:57;19.40;99.90
8715;DHT22;4394;51.208;8.904;2023-09-30T11:26:45;19.50;99.90
8715;DHT22;4394;51.208;8.904;2023-09-30T11:29:36;19.50;99.90
8715;DHT22;4394;51.208;8.904;2023-09-30T11:32:25;19.60;99.90
8715;DHT22;4394;51.208;8.904;2023-09-30T11:35:22;19.60;99.90
8715;DHT22;4394;51.208;8.904;2023-09-30T11:38:10;19.70;99.90
8715;DHT22;4394;51.208;8.904;2023-09-30T11:41:00;19.70;99.90
8715;DHT22;4394;51.208;8.904;2023-09-30T11:43:59;19.80;99.90
8715;DHT22;4394;51.208;8.904;2023-09-30T11:46:49;19.60;99.90
8715;DHT22;4394;51.208;8.904;2023-09-30T11:49:43;19.60;99.90
8715;DHT22;4394;51.208;8.904;2023-09-30T11:52:32;19.70;99.90
8715;DHT22;4394;51.208;8.904;2023-09-30T11:55:22;19.70;99.90
8715;DHT22;4394;51.208;8.904;2023-09-30T11:58:10;19.80;99.90
8715;DHT22;4394;51.208;8.904;2023-09-30T12:01:02;19.70;99.90
8715;DHT22;4394;51.208;8.904;2023-09-30T12:03:53;19.50;99.90
8715;DHT22;4394;51.208;8.904;2023-09-30T12:06:46;19.40;99.90
8715;DHT22;4394;51.208;8.904;2023-09-30T12:09:34;19.50;99.90
8715;DHT22;4394;51.208;8.904;2023-09-30T12:12:24;19.70;99.90
8715;DHT22;4394;51.208;8.904;2023-09-30T12:15:12;19.80;99.90
8715;DHT22;4394;51.208;8.904;2023-09-30T12:18:00;19.70;99.90
8715;DHT22;4394;51.208;8.904;2023-09-30T12:20:49;19.50;99.90
8715;DHT22;4394;51.208;8.904;2023-09-30T12:23:40;19.30;99.90
8715;DHT22;4394;51.208;8.904;2023-09-30T12:26:28;19.20;99.90
8715;DHT22;4394;51.208;8.904;2023-09-30T12:29:17;19.30;99.90
8715;DHT22;4394;51.208;8.904;2023-09-30T12:32:05;19.30;99.90
8715;DHT22;4394;51.208;8.904;2023-09-30T12:34:54;19.60;99.90
8715;DHT22;4394;51.208;8.904;2023-09-30T12:37:42;19.80;99.90
8715;DHT22;4394;51.208;8.904;2023-09-30T12:40:33;20.00;99.90
8715;DHT22;4394;51.208;8.904;2023-09-30T12:43:22;20.10;99.90
8715;DHT22;4394;51.208;8.904;2023-09-30T12:46:10;20.30;99.90
8715;DHT22;4394;51.208;8.904;2023-09-30T12:49:00;20.40;99.90
8715;DHT22;4394;51.208;8.904;2023-09-30T12:51:48;20.50;99.90
8715;DHT22;4394;51.208;8.904;2023-09-30T12:54:36;20.60;99.90
8715;DHT22;4394;51.208;8.904;2023-09-30T12:57:26;21.20;99.90
8715;DHT22;4394;51.208;8.904;2023-09-30T13:00:15;21.10;99.90
8715;DHT22;4394;51.208;8.904;2023-09-30T13:03:05;20.90;99.90
8715;DHT22;4394;51.208;8.904;2023-09-30T13:05:54;20.90;99.90
8715;DHT22;4394;51.208;8.904;2023-09-30T13:08:43;20.90;99.90
8715;DHT22;4394;51.208;8.904;2023-09-30T13:11:30;21.30;99.90
8715;DHT22;4394;51.208;8.904;2023-09-30T13:14:24;21.10;99.90
8715;DHT22;4394;51.208;8.904;2023-09-30T13:17:14;20.80;99.90
8715;DHT22;4394;51.208;8.904;2023-09-30T13:20:03;20.70;99.90
8715;DHT22;4394;51.208;8.904;2023-09-30T13:22:52;20.80;99.90
8715;DHT22;4394;51.208;8.904;2023-09-30T13:25:40;20.90;99.90
8715;DHT22;4394;51.208;8.904;2023-09-30T13:28:28;20.90;99.90
8715;DHT22;4394;51.208;8.904;2023-09-30T13:31:17;20.70;99.90
8715;DHT22;4394;51.208;8.904;2023-09-30T13:34:05;20.60;99.90
8715;DHT22;4394;51.208;8.904;2023-09-30T13:36:54;20.70;99.90
8715;DHT22;4394;51.208;8.904;2023-09-30T13:39:44;20.50;99.90
8715;DHT22;4394;51.208;8.904;2023-09-30T13:42:32;20.20;99.90
8715;DHT22;4394;51.208;8.904;2023-09-30T13:45:20;20.20;99.90
8715;DHT22;4394;51.208;8.904;2023-09-30T13:48:09;20.40;99.90
8715;DHT22;4394;51.208;8.904;2023-09-30T13:51:04;20.60;99.90
8715;DHT22;4394;51.208;8.904;2023-09-30T13:53:52;20.70;99.90
8715;DHT22;4394;51.208;8.904;2023-09-30T13:56:41;20.70;99.90
8715;DHT22;4394;51.208;8.904;2023-09-30T13:59:34;20.80;99.90
8715;DHT22;4394;51.208;8.904;2023-09-30T14:02:22;21.00;99.90
8715;DHT22;4394;51.208;8.904;2023-09-30T14:05:12;21.20;99.90
8715;DHT22;4394;51.208;8.904;2023-09-30T14:08:00;21.30;99.90
8715;DHT22;4394;51.208;8.904;2023-09-30T14:10:50;21.50;99.90
8715;DHT22;4394;51.208;8.904;2023-09-30T14:13:38;21.40;99.90
8715;DHT22;4394;51.208;8.904;2023-09-30T14:16:26;21.20;99.90
8715;DHT22;4394;51.208;8.904;2023-09-30T14:19:14;21.50;99.90
8715;DHT22;4394;51.208;8.904;2023-09-30T14:22:04;21.40;99.90
8715;DHT22;4394;51.208;8.904;2023-09-30T14:24:52;21.30;99.90
8715;DHT22;4394;51.208;8.904;2023-09-30T14:27:40;21.20;99.90
8715;DHT22;4394;51.208;8.904;2023-09-30T14:30:28;21.10;99.90
8715;DHT22;4394;51.208;8.904;2023-09-30T14:33:16;21.00;99.90
8715;DHT22;4394;51.208;8.904;2023-09-30T14:36:05;21.00;99.90
8715;DHT22;4394;51.208;8.904;2023-09-30T14:38:54;20.90;99.90
8715;DHT22;4394;51.208;8.904;2023-09-30T14:42:00;21.00;99.90
8715;DHT22;4394;51.208;8.904;2023-09-30T14:44:48;21.30;99.90
8715;DHT22;4394;51.208;8.904;2023-09-30T14:47:36;21.30;99.90
8715;DHT22;4394;51.208;8.904;2023-09-30T14:50:24;21.20;99.90
8715;DHT22;4394;51.208;8.904;2023-09-30T14:53:12;21.20;99.90
8715;DHT22;4394;51.208;8.904;2023-09-30T14:56:01;21.10;99.90
8715;DHT22;4394;51.208;8.904;2023-09-30T14:58:49;21.10;99.90
8715;DHT22;4394;51.208;8.904;2023-09-30T15:01:37;21.00;99.90
8715;DHT22;4394;51.208;8.904;2023-09-30T15:04:26;21.10;99.90
8715;DHT22;4394;51.208;8.904;2023-09-30T15:07:15;21.00;99.90
8715;DHT22;4394;51.208;8.904;2023-09-30T15:10:03;21.10;99.90
8715;DHT22;4394;51.208;8.904;2023-09-30T15:12:52;21.10;99.90
8715;DHT22;4394;51.208;8.904;2023-09-30T15:15:40;21.00;99.90
8715;DHT22;4394;51.208;8.904;2023-09-30T15:18:28;21.00;99.90
8715;DHT22;4394;51.208;8.904;2023-09-30T15:21:17;21.10;99.90
8715;DHT22;4394;51.208;8.904;2023-09-30T15:24:07;21.10;99.90
8715;DHT22;4394;51.208;8.904;2023-09-30T15:26:55;21.70;99.90
8715;DHT22;4394;51.208;8.904;2023-09-30T15:29:44;21.50;99.90
8715;DHT22;4394;51.208;8.904;2023-09-30T15:32:34;21.20;99.90
8715;DHT22;4394;51.208;8.904;2023-09-30T15:35:22;21.00;99.90
8715;DHT22;4394;51.208;8.904;2023-09-30T15:38:10;20.90;99.90
8715;DHT22;4394;51.208;8.904;2023-09-30T15:40:58;21.00;99.90
8715;DHT22;4394;51.208;8.904;2023-09-30T15:43:48;21.00;99.90
8715;DHT22;4394;51.208;8.904;2023-09-30T15:46:38;20.90;99.90
8715;DHT22;4394;51.208;8.904;2023-09-30T15:49:26;20.60;99.90
8715;DHT22;4394;51.208;8.904;2023-09-30T15:52:14;20.50;99.90
8715;DHT22;4394;51.208;8.904;2023-09-30T15:55:02;20.40;99.90
8715;DHT22;4394;51.208;8.904;2023-09-30T15:57:51;20.30;99.90
8715;DHT22;4394;51.208;8.904;2023-09-30T16:00:39;20.20;99.90
8715;DHT22;4394;51.208;8.904;2023-09-30T16:03:30;20.10;99.90
8715;DHT22;4394;51.208;8.904;2023-09-30T16:06:18;20.00;99.90
8715;DHT22;4394;51.208;8.904;2023-09-30T16:09:06;19.70;99.90
8715;DHT22;4394;51.208;8.904;2023-09-30T16:11:55;19.60;99.90
8715;DHT22;4394;51.208;8.904;2023-09-30T16:14:43;19.40;99.90
8715;DHT22;4394;51.208;8.904;2023-09-30T16:17:31;19.60;99.90
8715;DHT22;4394;51.208;8.904;2023-09-30T16:20:20;19.40;99.90
8715;DHT22;4394;51.208;8.904;2023-09-30T16:23:11;19.10;99.90
8715;DHT22;4394;51.208;8.904;2023-09-30T16:25:59;18.90;99.90
8715;DHT22;4394;51.208;8.904;2023-09-30T16:28:47;18.80;99.90
8715;DHT22;4394;51.208;8.904;2023-09-30T16:31:35;18.80;99.90
8715;DHT22;4394;51.208;8.904;2023-09-30T16:34:23;18.80;99.90
8715;DHT22;4394;51.208;8.904;2023-09-30T16:37:13;18.70;99.90
8715;DHT22;4394;51.208;8.904;2023-09-30T16:40:01;18.70;99.90
8715;DHT22;4394;51.208;8.904;2023-09-30T16:42:49;18.60;99.90
8715;DHT22;4394;51.208;8.904;2023-09-30T16:45:37;18.50;99.90
8715;DHT22;4394;51.208;8.904;2023-09-30T16:48:25;18.50;99.90
8715;DHT22;4394;51.208;8.904;2023-09-30T16:51:13;18.50;99.90
8715;DHT22;4394;51.208;8.904;2023-09-30T16:54:03;18.40;99.90
8715;DHT22;4394;51.208;8.904;2023-09-30T16:56:51;18.30;99.90
8715;DHT22;4394;51.208;8.904;2023-09-30T16:59:39;18.20;99.90
8715;DHT22;4394;51.208;8.904;2023-09-30T17:02:27;18.00;99.90
8715;DHT22;4394;51.208;8.904;2023-09-30T17:05:16;17.90;99.90
8715;DHT22;4394;51.208;8.904;2023-09-30T17:08:04;17.70;99.90
8715;DHT22;4394;51.208;8.904;2023-09-30T17:10:55;17.90;99.90
8715;DHT22;4394;51.208;8.904;2023-09-30T17:13:42;17.90;99.90
8715;DHT22;4394;51.208;8.904;2023-09-30T17:16:30;17.80;99.90
8715;DHT22;4394;51.208;8.904;2023-09-30T17:19:19;17.70;99.90
8715;DHT22;4394;51.208;8.904;2023-09-30T17:22:07;17.60;99.90
8715;DHT22;4394;51.208;8.904;2023-09-30T17:24:57;17.60;99.90
8715;DHT22;4394;51.208;8.904;2023-09-30T17:27:47;17.50;99.90
8715;DHT22;4394;51.208;8.904;2023-09-30T17:30:35;17.30;99.90
8715;DHT22;4394;51.208;8.904;2023-09-30T17:33:28;17.40;99.90
8715;DHT22;4394;51.208;8.904;2023-09-30T17:36:16;17.30;99.90
8715;DHT22;4394;51.208;8.904;2023-09-30T17:39:04;17.40;99.90
8715;DHT22;4394;51.208;8.904;2023-09-30T17:41:53;17.20;99.90
8715;DHT22;4394;51.208;8.904;2023-09-30T17:44:43;17.20;99.90
8715;DHT22;4394;51.208;8.904;2023-09-30T17:47:32;17.10;99.90
8715;DHT22;4394;51.208;8.904;2023-09-30T17:50:20;16.90;99.90
8715;DHT22;4394;51.208;8.904;2023-09-30T17:53:08;16.90;99.90
8715;DHT22;4394;51.208;8.904;2023-09-30T17:55:56;16.80;99.90
8715;DHT22;4394;51.208;8.904;2023-09-30T17:58:44;16.80;99.90
8715;DHT22;4394;51.208;8.904;2023-09-30T18:01:34;16.70;99.90
8715;DHT22;4394;51.208;8.904;2023-09-30T18:04:23;16.60;99.90
8715;DHT22;4394;51.208;8.904;2023-09-30T18:07:11;16.50;99.90
8715;DHT22;4394;51.208;8.904;2023-09-30T18:10:00;16.40;99.90
8715;DHT22;4394;51.208;8.904;2023-09-30T18:12:49;16.40;99.90
8715;DHT22;4394;51.208;8.904;2023-09-30T18:15:37;16.30;99.90
8715;DHT22;4394;51.208;8.904;2023-09-30T18:18:27;16.20;99.90
8715;DHT22;4394;51.208;8.904;2023-09-30T18:21:15;16.10;99.90
8715;DHT22;4394;51.208;8.904;2023-09-30T18:24:04;16.00;99.90
8715;DHT22;4394;51.208;8.904;2023-09-30T18:26:53;15.90;99.90